createdAt,value
2023-11-06T07:05:16.749Z,85.80
2023-11-06T07:08:18.557Z,85.80
2023-11-06T07:11:20.279Z,85.90
2023-11-06T07:14:22.359Z,85.90
2023-11-06T07:17:24.301Z,85.90
2023-11-06T07:20:26.367Z,86.00
2023-11-06T07:23:29.296Z,86.10
2023-11-06T07:26:31.130Z,86.10
2023-11-06T07:29:33.044Z,86.10
2023-11-06T07:32:34.860Z,86.00
2023-11-06T07:35:37.434Z,85.90
2023-11-06T07:38:39.246Z,85.90
2023-11-06T07:41:40.980Z,85.80
2023-11-06T07:44:43.140Z,85.80
2023-11-06T07:47:44.986Z,85.80
2023-11-06T07:50:46.782Z,85.70
2023-11-06T07:53:48.760Z,85.60
2023-11-06T07:56:52.083Z,85.50
2023-11-06T07:59:53.815Z,85.40
2023-11-06T08:02:55.572Z,85.40
2023-11-06T08:05:57.543Z,85.40
2023-11-06T08:08:59.537Z,85.40
2023-11-06T08:12:01.578Z,85.30
2023-11-06T08:15:05.002Z,85.20
2023-11-06T08:18:07.095Z,85.00
2023-11-06T08:21:11.116Z,84.80
2023-11-06T08:24:12.810Z,84.60
2023-11-06T08:27:14.727Z,84.40
2023-11-06T08:30:16.609Z,84.20
2023-11-06T08:33:19.005Z,84.00
2023-11-06T08:36:22.111Z,83.90
2023-11-06T08:39:24.527Z,83.70
2023-11-06T08:42:26.230Z,83.50
2023-11-06T08:45:28.650Z,83.30
2023-11-06T08:48:30.502Z,83.00
2023-11-06T08:51:35.245Z,82.90
2023-11-06T08:54:38.963Z,82.60
2023-11-06T08:57:40.706Z,82.40
2023-11-06T09:00:42.567Z,82.20
2023-11-06T09:03:45.261Z,82.00
2023-11-06T09:06:47.679Z,81.60
2023-11-06T09:09:49.517Z,81.30
2023-11-06T09:12:51.212Z,80.90
2023-11-06T09:15:52.990Z,80.70
2023-11-06T09:18:54.881Z,80.20
2023-11-06T09:21:56.600Z,80.00
2023-11-06T09:24:58.743Z,79.80
2023-11-06T09:28:00.521Z,79.70
2023-11-06T09:31:02.254Z,79.40
2023-11-06T09:34:04.218Z,79.10
2023-11-06T09:37:06.250Z,78.60
2023-11-06T09:40:11.968Z,78.30
2023-11-06T09:43:13.707Z,78.00
2023-11-06T09:46:15.855Z,77.80
2023-11-06T09:49:18.907Z,77.50
2023-11-06T09:52:20.665Z,77.30
2023-11-06T09:55:22.682Z,76.90
2023-11-06T09:58:24.365Z,76.60
2023-11-06T10:01:29.388Z,76.00
2023-11-06T10:04:33.245Z,75.80
2023-11-06T10:07:54.285Z,75.70
2023-11-06T10:11:01.842Z,75.30
2023-11-06T10:14:03.633Z,75.20
2023-11-06T10:17:05.678Z,74.90
2023-11-06T10:20:26.413Z,74.80
2023-11-06T10:23:31.326Z,74.70
2023-11-06T10:26:33.368Z,74.50
2023-11-06T10:29:36.164Z,74.00
2023-11-06T10:32:38.101Z,73.90
2023-11-06T10:35:40.905Z,73.80
2023-11-06T10:38:44.429Z,73.70
2023-11-06T10:41:46.329Z,73.20
2023-11-06T10:45:01.183Z,73.10
2023-11-06T10:48:10.916Z,72.90
2023-11-06T10:51:12.776Z,72.70
2023-11-06T10:54:16.088Z,72.50
2023-11-06T10:57:18.962Z,72.50
2023-11-06T11:00:22.015Z,72.10
2023-11-06T11:03:23.765Z,71.80
2023-11-06T11:06:26.177Z,71.80
2023-11-06T11:09:28.441Z,71.50
2023-11-06T11:12:30.175Z,71.50
2023-11-06T11:15:37.721Z,71.30
2023-11-06T11:18:39.527Z,71.30
2023-11-06T11:22:04.764Z,71.00
2023-11-06T11:25:07.337Z,70.60
2023-11-06T11:28:15.156Z,70.60
2023-11-06T11:31:44.645Z,70.70
2023-11-06T11:34:46.858Z,70.70
2023-11-06T11:37:55.354Z,70.40
2023-11-06T11:40:57.067Z,69.80
2023-11-06T11:44:09.885Z,69.60
2023-11-06T11:47:11.784Z,69.70
2023-11-06T11:50:28.767Z,69.10
2023-11-06T11:53:34.120Z,68.70
2023-11-06T11:56:53.021Z,68.70
2023-11-06T11:59:55.409Z,68.70
2023-11-06T12:03:13.599Z,68.50
2023-11-06T12:06:15.841Z,68.60
2023-11-06T12:09:18.427Z,68.30
2023-11-06T12:12:24.733Z,68.00
2023-11-06T12:15:35.512Z,68.00
2023-11-06T12:18:42.861Z,67.90
2023-11-06T12:21:45.662Z,67.80
2023-11-06T12:24:50.173Z,67.50
2023-11-06T12:27:52.844Z,67.30
2023-11-06T12:30:55.867Z,67.20
2023-11-06T12:33:58.490Z,67.00
2023-11-06T12:37:05.028Z,66.80
2023-11-06T12:40:23.292Z,67.00
2023-11-06T12:43:28.159Z,67.20
2023-11-06T12:46:58.045Z,67.40
2023-11-06T12:50:07.447Z,67.60
2023-11-06T12:53:09.335Z,67.70
2023-11-06T12:56:11.624Z,67.80
2023-11-06T12:59:15.865Z,68.00
2023-11-06T13:02:17.731Z,68.30
2023-11-06T13:05:21.482Z,67.90
2023-11-06T13:08:26.956Z,67.60
2023-11-06T13:11:36.032Z,66.80
2023-11-06T13:14:40.782Z,66.50
2023-11-06T13:17:43.905Z,66.20
2023-11-06T13:20:54.713Z,66.10
2023-11-06T13:23:56.614Z,66.00
2023-11-06T13:26:58.657Z,66.00
2023-11-06T13:30:00.450Z,66.50
2023-11-06T13:33:08.175Z,66.90
2023-11-06T13:36:12.501Z,67.20
2023-11-06T13:39:15.288Z,67.20
2023-11-06T13:42:16.970Z,67.30
2023-11-06T13:45:19.000Z,67.50
2023-11-06T13:48:21.582Z,67.80
2023-11-06T13:51:27.710Z,68.00
2023-11-06T13:54:35.646Z,67.70
2023-11-06T13:57:40.432Z,67.30
2023-11-06T14:00:49.426Z,67.00
2023-11-06T14:03:52.451Z,66.70
2023-11-06T14:06:55.798Z,66.60
2023-11-06T14:09:57.891Z,66.90
2023-11-06T14:13:01.382Z,66.90
2023-11-06T14:16:03.668Z,66.50
2023-11-06T14:19:05.449Z,66.40
2023-11-06T14:22:08.387Z,66.30
2023-11-06T14:25:10.424Z,66.60
2023-11-06T14:28:13.513Z,67.10
2023-11-06T14:31:15.326Z,66.90
2023-11-06T14:34:17.793Z,66.60
2023-11-06T14:37:19.832Z,65.60
2023-11-06T14:40:23.779Z,65.40
2023-11-06T14:43:25.647Z,65.10
2023-11-06T14:46:27.558Z,64.80
2023-11-06T14:49:29.351Z,64.40
2023-11-06T14:52:31.271Z,64.60
2023-11-06T14:55:33.710Z,65.00
2023-11-06T14:58:35.449Z,65.10
2023-11-06T15:01:40.503Z,65.50
2023-11-06T15:04:44.397Z,66.00
2023-11-06T15:07:55.954Z,66.40
2023-11-06T15:10:59.304Z,66.50
2023-11-06T15:14:01.764Z,66.50
2023-11-06T15:17:03.904Z,66.50
2023-11-06T15:20:06.518Z,66.50
2023-11-06T15:23:08.412Z,66.50
2023-11-06T15:26:10.384Z,66.50
2023-11-06T15:29:13.400Z,66.70
2023-11-06T15:32:15.265Z,66.80
2023-11-06T15:35:17.158Z,67.00
2023-11-06T15:38:19.162Z,67.20
2023-11-06T15:41:21.044Z,67.30
2023-11-06T15:44:22.803Z,67.50
2023-11-06T15:47:24.897Z,67.70
2023-11-06T15:50:30.528Z,67.60
2023-11-06T15:53:33.673Z,67.50
2023-11-06T15:56:35.959Z,67.30
2023-11-06T15:59:37.738Z,67.20
2023-11-06T16:02:39.630Z,67.20
2023-11-06T16:05:41.438Z,67.50
2023-11-06T16:08:43.210Z,67.90
2023-11-06T16:11:45.665Z,68.30
2023-11-06T16:14:47.525Z,68.60
2023-11-06T16:17:49.540Z,68.80
2023-11-06T16:20:51.306Z,68.90
2023-11-06T16:23:53.083Z,69.10
2023-11-06T16:26:54.928Z,69.20
2023-11-06T16:29:56.694Z,69.30
2023-11-06T16:32:59.033Z,69.60
2023-11-06T16:36:01.342Z,69.90
2023-11-06T16:39:03.060Z,70.00
2023-11-06T16:42:05.166Z,70.30
2023-11-06T16:45:07.794Z,70.60
2023-11-06T16:48:09.988Z,70.80
2023-11-06T16:51:15.558Z,71.20
2023-11-06T16:54:17.305Z,71.50
2023-11-06T16:57:19.107Z,71.80
2023-11-06T17:00:21.951Z,72.10
2023-11-06T17:03:25.116Z,72.30
2023-11-06T17:06:26.956Z,72.50
2023-11-06T17:09:28.659Z,72.60
2023-11-06T17:12:30.423Z,72.80
2023-11-06T17:15:36.029Z,73.00
2023-11-06T17:18:37.969Z,73.20
2023-11-06T17:21:39.777Z,73.40
2023-11-06T17:24:43.363Z,73.50
2023-11-06T17:27:45.264Z,73.80
2023-11-06T17:30:47.016Z,73.90
2023-11-06T17:33:53.237Z,74.10
2023-11-06T17:36:55.331Z,74.30
2023-11-06T17:39:57.830Z,74.50
2023-11-06T17:43:00.253Z,74.60
2023-11-06T17:46:06.792Z,74.80
2023-11-06T17:49:10.283Z,75.00
2023-11-06T17:52:11.985Z,75.10
2023-11-06T17:55:13.864Z,75.30
2023-11-06T17:58:16.236Z,75.40
2023-11-06T18:01:20.485Z,75.50
2023-11-06T18:04:22.582Z,75.70
2023-11-06T18:07:24.286Z,75.80
2023-11-06T18:10:25.985Z,76.00
2023-11-06T18:13:29.134Z,76.10
2023-11-06T18:16:33.459Z,76.20
2023-11-06T18:19:35.762Z,76.30
2023-11-06T18:22:39.109Z,76.40
2023-11-06T18:25:41.120Z,76.50
2023-11-06T18:28:42.952Z,76.50
2023-11-06T18:31:44.728Z,76.60
2023-11-06T18:34:48.272Z,76.70
2023-11-06T18:37:50.298Z,76.80
2023-11-06T18:40:52.120Z,77.00
2023-11-06T18:43:53.895Z,77.10
2023-11-06T18:46:55.833Z,77.20
2023-11-06T18:49:58.930Z,77.30
2023-11-06T18:53:00.754Z,77.40
2023-11-06T18:56:02.533Z,77.50
2023-11-06T18:59:05.852Z,77.60
2023-11-06T19:02:09.919Z,77.80
2023-11-06T19:05:14.371Z,77.80
2023-11-06T19:08:16.183Z,77.90
2023-11-06T19:11:17.924Z,78.10
2023-11-06T19:14:19.868Z,78.10
2023-11-06T19:17:22.041Z,78.10
2023-11-06T19:20:27.606Z,78.30
2023-11-06T19:23:29.435Z,78.40
2023-11-06T19:26:35.801Z,78.50
2023-11-06T19:29:37.593Z,78.50
2023-11-06T19:32:39.890Z,78.60
2023-11-06T19:35:42.069Z,78.70
2023-11-06T19:38:43.904Z,78.70
2023-11-06T19:41:48.246Z,78.80
2023-11-06T19:44:52.683Z,78.90
2023-11-06T19:47:54.783Z,78.90
2023-11-06T19:50:58.973Z,79.00
2023-11-06T19:54:00.715Z,79.00
2023-11-06T19:57:02.772Z,79.10
2023-11-06T20:00:13.443Z,79.20
2023-11-06T20:03:18.496Z,79.20
2023-11-06T20:06:20.354Z,79.30
2023-11-06T20:09:22.268Z,79.40
2023-11-06T20:12:24.125Z,79.40
2023-11-06T20:15:25.970Z,79.50
2023-11-06T20:18:32.796Z,79.60
2023-11-06T20:21:35.720Z,79.70
2023-11-06T20:24:37.631Z,79.70
2023-11-06T20:27:39.541Z,79.80
2023-11-06T20:30:41.844Z,79.80
2023-11-06T20:33:43.687Z,79.90
2023-11-06T20:36:49.424Z,79.90
2023-11-06T20:39:51.236Z,80.00
2023-11-06T20:42:54.502Z,80.00
2023-11-06T20:45:57.096Z,80.00
2023-11-06T20:48:59.109Z,80.10
2023-11-06T20:52:00.939Z,80.10
2023-11-06T20:55:04.317Z,80.20
2023-11-06T20:58:06.305Z,80.20
2023-11-06T21:01:08.046Z,80.30
2023-11-06T21:04:09.940Z,80.40
2023-11-06T21:07:13.799Z,80.40
2023-11-06T21:10:16.051Z,80.50
2023-11-06T21:13:17.860Z,80.60
2023-11-06T21:16:19.787Z,80.60
2023-11-06T21:19:21.798Z,80.60
2023-11-06T21:22:24.309Z,80.80
2023-11-06T21:25:26.302Z,80.80
2023-11-06T21:28:29.996Z,80.90
2023-11-06T21:31:31.735Z,80.90
2023-11-06T21:34:33.704Z,81.10
2023-11-06T21:37:36.047Z,81.10
2023-11-06T21:40:37.850Z,81.00
2023-11-06T21:43:39.611Z,81.10
2023-11-06T21:46:42.738Z,81.10
2023-11-06T21:49:45.608Z,81.20
2023-11-06T21:52:47.554Z,81.40
2023-11-06T21:55:49.812Z,81.40
2023-11-06T21:58:52.404Z,81.40
2023-11-06T22:01:57.237Z,81.40
2023-11-06T22:05:01.703Z,81.40
2023-11-06T22:08:05.085Z,81.40
2023-11-06T22:11:06.952Z,81.50
2023-11-06T22:14:08.738Z,81.50
2023-11-06T22:17:11.376Z,81.50
2023-11-06T22:20:13.216Z,81.50
2023-11-06T22:23:15.956Z,81.50
2023-11-06T22:26:18.396Z,81.50
2023-11-06T22:29:20.126Z,81.50
2023-11-06T22:32:22.032Z,81.60
2023-11-06T22:35:24.077Z,81.60
2023-11-06T22:38:25.839Z,81.70
2023-11-06T22:41:27.569Z,81.70
2023-11-06T22:44:29.317Z,81.80
